Helfenstein, Pennsylvania
Current Conditions -  °F | °C
As of 7:55 AM on Friday 24 Oct 2014 (Local Time) from KHZL Reporting Station
Overcast Overcast  
Wind Chill: 42°   Ceiling: 1700
Heat Index: 48°   Visibility: 10mi
Dew Point: 43°   Wind: 15mph
Humidity: 82%   Direction: 310°NW
Pressure: 29.91"   Gusts: 23mph
Location:  40.7564°N, 76.3531°W
Report Text: KHZL 241155Z AUTO 31013G20KT 10SM OVC017 09/06 A2991 RMK AO2
Loading
Personal Weather Stations






























Interactive Weather Map
Tropical Storm Tracking
New forecast layout! Learn more

10-Day Weather Forecast

Advertisements
Track Severe Weather on mobile